Etusivu
METAR-TAF:

METAR-TAF

Lentoasemat :

Ørland, Norja

Leveyspiiri: 63-42N, Pituuspiiri: 009-36E, korkeus merenpinnasta: 0 m

Tämänhetkinen sää

Tämä raportti tehtiin 16 minuuttia sitten, kello 13.20 UTC
Tuuli 12 kn luoteesta
Lämpötila 11°C
Kosteus 82%
Ilmanpaine 1029 hPa
Näkyvyys 10 km tai enemmän
Muutamia pilviä 800 ft:n korkeudessa
Hajanaisia pilviä 1600 ft:n korkeudessa

METAR: ENOL 241320Z 31012KT 9999 FEW008 SCT016 11/08 Q1029 NOSIG

Aika: 15:36 (13:36 UTC)

Sääennuste

Ennuste voimassa 24. päivästä klo 12 UTC - 25. päivään klo 12 UTC
Tuuli 10 kn lännestä/luoteesta
Näkyvyys 10 km tai enemmän
Muutamia pilviä 800 ft:n korkeudessa
Tulossa
24. päivästä klo 18 UTC - 24. päivään klo 21 UTC
Tuuli 5 kn eri suunnista
Tulossa
25. päivästä klo 09 UTC - 25. päivään klo 11 UTC
Tuuli 15 kn lännestä

TAF: ENOL 2412/2512 30010KT 9999 FEW008 BECMG 2418/2421 VRB05KT BECMG 2509/2511 28015KT

Säähavainnot ja -ennusteet yli 4000 lentoasemalta (METAR- ja TAF-raportit).

Käytössä olevat sääasemat on merkitty karttaan keltaisilla ja punaisilla pisteillä.

Aseta hiiri pisteen päälle nähdäksesi sääaseman nimen.

Klikkaa sitten nähdäksesi säähavainnot ja -ennusteet.

Kartan vaihtaminen: klikkaa mustalla rastilla varustettuja vihreitä pisteitä, niin voit zoomata sisään; viivalla varustettua vihreää pistettä, niin voit zoomata ulos tai vihreitä nuolia, niin pääset viereisille kartoille.


METAR-TAF: